Time;durP1;ratioP1;P1;durP2;ratioP2;P2;SDS_P1;SDS_P2;PMS_P1;PMS_P2;Temp;Humidity;BMP_temperature;BMP_pressure;BME280_temperature;BME280_humidity;BME280_pressure;Samples;Min_cycle;Max_cycle;Signal;HPM_P1;HPM_P2
2021/03/05 00:00:15;;;;;;;19.43;6.47;;;4.40;99.90;;;;;;5095264;28;20228;-77
2021/03/05 00:02:41;;;;;;;18.87;6.73;;;4.50;99.90;;;;;;5094316;28;20294;-77
2021/03/05 00:05:09;;;;;;;17.73;5.97;;;4.40;99.90;;;;;;5097748;28;20236;-77
2021/03/05 00:07:36;;;;;;;15.80;5.67;;;4.40;99.90;;;;;;5097706;28;20300;-77
2021/03/05 00:10:06;;;;;;;13.37;5.27;;;4.40;99.90;;;;;;5096418;28;20193;-77
2021/03/05 00:12:33;;;;;;;12.00;4.40;;;4.40;99.90;;;;;;5095570;28;20206;-83
2021/03/05 00:14:59;;;;;;;12.27;4.83;;;4.30;99.90;;;;;;5095496;28;20205;-78
2021/03/05 00:17:26;;;;;;;17.67;5.20;;;4.30;99.90;;;;;;5096157;28;20202;-77
2021/03/05 00:19:52;;;;;;;18.70;6.17;;;4.30;99.90;;;;;;5097663;28;20262;-78
2021/03/05 00:22:19;;;;;;;10.73;4.60;;;4.30;99.90;;;;;;5097666;28;20197;-82
2021/03/05 00:24:45;;;;;;;10.13;3.73;;;4.30;99.90;;;;;;5096033;28;20226;-77
2021/03/05 00:27:11;;;;;;;14.90;4.10;;;4.20;99.90;;;;;;5097875;28;20212;-77
2021/03/05 00:29:39;;;;;;;11.87;4.13;;;4.20;99.90;;;;;;5096526;28;20685;-77
2021/03/05 00:32:06;;;;;;;11.77;4.80;;;4.20;99.90;;;;;;5093683;28;20206;-76
2021/03/05 00:34:33;;;;;;;8.80;4.70;;;4.20;99.90;;;;;;5096351;28;20215;-77
2021/03/05 00:36:59;;;;;;;14.20;4.93;;;4.20;99.90;;;;;;5096374;28;20202;-76
2021/03/05 00:39:25;;;;;;;10.30;4.83;;;4.20;99.90;;;;;;5097475;28;20205;-76
2021/03/05 00:41:52;;;;;;;10.33;4.10;;;4.10;99.90;;;;;;5096730;28;20202;-77
2021/03/05 00:44:18;;;;;;;8.43;4.60;;;4.00;99.90;;;;;;5095416;28;20691;-77
2021/03/05 00:46:45;;;;;;;10.67;3.70;;;4.10;99.90;;;;;;5095147;28;20218;-77
2021/03/05 00:49:12;;;;;;;11.60;3.63;;;4.10;99.90;;;;;;5096172;28;20206;-76
2021/03/05 00:51:38;;;;;;;12.73;4.30;;;4.10;99.90;;;;;;5097178;28;20297;-76
2021/03/05 00:54:06;;;;;;;13.97;4.30;;;4.00;99.90;;;;;;5099046;28;20359;-76
2021/03/05 00:56:32;;;;;;;12.57;4.67;;;4.00;99.90;;;;;;5099826;28;20665;-77
2021/03/05 00:58:58;;;;;;;13.67;4.73;;;4.00;99.90;;;;;;5099413;28;20197;-77
2021/03/05 01:01:25;;;;;;;17.77;6.07;;;4.00;99.90;;;;;;5100335;28;20263;-77
2021/03/05 01:03:52;;;;;;;11.00;5.17;;;4.00;99.90;;;;;;5099045;28;20217;-78
2021/03/05 01:06:18;;;;;;;14.17;6.43;;;4.00;99.90;;;;;;5099062;28;20250;-78
2021/03/05 01:08:45;;;;;;;8.87;5.60;;;4.00;99.90;;;;;;5099792;28;20246;-77
2021/03/05 01:11:11;;;;;;;11.10;4.97;;;4.00;99.90;;;;;;5100341;28;20205;-78
2021/03/05 01:13:37;;;;;;;15.97;5.70;;;4.00;99.90;;;;;;5100035;28;20214;-76
2021/03/05 01:16:04;;;;;;;12.47;5.63;;;4.00;99.90;;;;;;5099849;28;20202;-78
2021/03/05 01:18:31;;;;;;;20.03;6.63;;;4.10;99.90;;;;;;5099339;28;20284;-77
2021/03/05 01:20:58;;;;;;;14.27;7.40;;;3.90;99.90;;;;;;5098909;28;20202;-77
2021/03/05 01:23:24;;;;;;;19.03;7.20;;;3.90;99.90;;;;;;5099202;28;20238;-80
2021/03/05 01:25:51;;;;;;;21.23;6.93;;;3.90;99.90;;;;;;5099320;28;20224;-78
2021/03/05 01:28:17;;;;;;;15.10;8.03;;;3.90;99.90;;;;;;5103466;28;20206;-78
2021/03/05 01:30:43;;;;;;;18.87;7.40;;;4.00;99.90;;;;;;5099339;28;20198;-78
2021/03/05 01:33:10;;;;;;;9.53;7.53;;;4.00;99.90;;;;;;5098922;28;20214;-78
2021/03/05 01:35:36;;;;;;;18.17;7.53;;;4.00;99.90;;;;;;5099853;28;20217;-77
2021/03/05 01:38:04;;;;;;;15.30;7.50;;;4.00;99.90;;;;;;5101987;28;20209;-78
2021/03/05 01:40:34;;;;;;;16.40;8.13;;;3.90;99.90;;;;;;5098473;28;20671;-78
2021/03/05 01:43:01;;;;;;;13.80;7.60;;;3.90;99.90;;;;;;5097593;28;20206;-78
2021/03/05 01:45:29;;;;;;;18.93;7.60;;;3.90;99.90;;;;;;5102122;28;20619;-79
2021/03/05 01:47:58;;;;;;;17.67;8.57;;;3.90;99.90;;;;;;5100679;28;20201;-79
2021/03/05 01:50:26;;;;;;;13.90;7.57;;;3.80;99.90;;;;;;5099921;28;20546;-78
2021/03/05 01:52:58;;;;;;;12.90;7.23;;;3.80;99.90;;;;;;5102311;28;20213;-79
2021/03/05 01:55:26;;;;;;;16.97;7.63;;;3.90;99.90;;;;;;5099880;28;20659;-79
2021/03/05 01:57:54;;;;;;;16.60;7.20;;;3.80;99.90;;;;;;5099869;28;20581;-79
2021/03/05 02:00:25;;;;;;;19.80;7.00;;;3.90;99.90;;;;;;5100780;28;20194;-81
2021/03/05 02:02:53;;;;;;;18.73;7.80;;;3.90;99.90;;;;;;5102407;28;20294;-79
2021/03/05 02:05:20;;;;;;;11.90;6.93;;;3.90;99.90;;;;;;5102460;28;20232;-79
2021/03/05 02:07:47;;;;;;;12.27;7.23;;;3.90;99.90;;;;;;5102045;28;20197;-79
2021/03/05 02:10:13;;;;;;;13.57;7.03;;;3.90;99.90;;;;;;5102579;28;20197;-79
2021/03/05 02:12:41;;;;;;;18.70;7.37;;;4.00;99.90;;;;;;5104736;28;20225;-80
2021/03/05 02:15:08;;;;;;;16.50;7.13;;;3.90;99.90;;;;;;5100803;28;20311;-79
2021/03/05 02:17:42;;;;;;;14.77;7.73;;;4.00;99.90;;;;;;5100133;28;20206;-79
2021/03/05 02:20:28;;;;;;;18.90;8.10;;;3.90;99.90;;;;;;5103020;28;20693;-78
2021/03/05 02:23:29;;;;;;;19.90;7.80;;;4.00;99.90;;;;;;5079570;28;20214;-80
2021/03/05 02:26:15;;;;;;;13.50;7.07;;;4.00;99.90;;;;;;5100621;28;20212;-79
2021/03/05 02:29:05;;;;;;;12.70;7.33;;;4.00;99.90;;;;;;5100491;28;20212;-80
2021/03/05 02:31:39;;;;;;;18.47;6.77;;;3.90;99.90;;;;;;5100907;28;20198;-78
2021/03/05 02:34:08;;;;;;;11.73;6.77;;;3.90;99.90;;;;;;5100317;28;20193;-80
2021/03/05 02:36:40;;;;;;;15.10;6.97;;;3.90;99.90;;;;;;5099171;28;20568;-80
2021/03/05 02:39:12;;;;;;;18.33;7.23;;;4.20;99.90;;;;;;5103637;28;20202;-80
2021/03/05 02:41:41;;;;;;;16.50;7.07;;;4.00;99.90;;;;;;5101874;28;20564;-80
2021/03/05 02:44:13;;;;;;;14.97;6.57;;;3.90;99.90;;;;;;5100686;28;20231;-80
2021/03/05 02:46:41;;;;;;;17.40;8.47;;;3.90;99.90;;;;;;5098210;28;20214;-81
2021/03/05 02:49:11;;;;;;;17.73;6.90;;;3.90;99.90;;;;;;5100467;28;20254;-79
2021/03/05 02:51:38;;;;;;;15.00;6.57;;;3.90;99.90;;;;;;5101513;28;20628;-80
2021/03/05 02:54:07;;;;;;;18.47;7.67;;;3.90;99.90;;;;;;5098768;28;20263;-80
2021/03/05 02:56:37;;;;;;;16.50;6.87;;;3.90;99.90;;;;;;5097048;28;20649;-80
2021/03/05 02:59:06;;;;;;;22.33;7.03;;;4.00;99.90;;;;;;5101493;28;20206;-79
2021/03/05 03:01:34;;;;;;;14.10;6.67;;;3.90;99.90;;;;;;5100470;28;20210;-81
2021/03/05 03:04:04;;;;;;;17.27;6.40;;;3.90;99.90;;;;;;5097196;28;20228;-81
2021/03/05 03:06:32;;;;;;;17.17;6.73;;;3.90;99.90;;;;;;5100971;28;20234;-80
2021/03/05 03:09:03;;;;;;;13.30;6.77;;;3.80;99.90;;;;;;5101250;28;20248;-80
2021/03/05 03:11:32;;;;;;;20.63;6.07;;;3.80;99.90;;;;;;5101573;28;20197;-80
2021/03/05 03:13:59;;;;;;;12.80;5.77;;;4.10;99.90;;;;;;5098848;28;20217;-81
2021/03/05 03:16:27;;;;;;;14.20;6.10;;;3.80;99.90;;;;;;5098139;28;20308;-80
2021/03/05 03:18:54;;;;;;;11.23;5.30;;;3.80;99.90;;;;;;5100937;28;20312;-81
2021/03/05 03:21:22;;;;;;;15.33;5.77;;;3.80;99.90;;;;;;5100128;28;20297;-81
2021/03/05 03:23:49;;;;;;;20.57;6.13;;;3.70;99.90;;;;;;5101441;28;20228;-80
2021/03/05 03:26:15;;;;;;;14.20;6.33;;;4.20;99.90;;;;;;5098737;28;20292;-80
2021/03/05 03:28:42;;;;;;;12.23;5.50;;;3.80;99.90;;;;;;5101937;28;20277;-80
2021/03/05 03:31:09;;;;;;;11.47;5.27;;;3.80;99.90;;;;;;5099267;28;20277;-80
2021/03/05 03:33:35;;;;;;;17.80;5.57;;;3.80;99.90;;;;;;5098036;28;20242;-81
2021/03/05 03:36:03;;;;;;;17.23;6.63;;;3.80;99.90;;;;;;5101681;28;20281;-79
2021/03/05 03:38:32;;;;;;;15.63;5.27;;;3.70;99.90;;;;;;5096677;28;20213;-82
2021/03/05 03:40:59;;;;;;;16.47;5.53;;;3.70;99.90;;;;;;5102660;28;20213;-79
2021/03/05 03:43:26;;;;;;;12.30;5.47;;;3.80;99.90;;;;;;5099987;28;20284;-79
2021/03/05 03:45:54;;;;;;;18.50;7.13;;;3.70;99.90;;;;;;5102087;28;20654;-80
2021/03/05 03:48:21;;;;;;;17.43;6.47;;;3.70;99.90;;;;;;5099895;28;20216;-80
2021/03/05 03:50:52;;;;;;;12.27;6.37;;;3.70;99.90;;;;;;5098696;28;20729;-80
2021/03/05 03:53:22;;;;;;;19.27;6.87;;;3.70;99.90;;;;;;5096551;28;20208;-80
2021/03/05 03:55:51;;;;;;;14.90;7.37;;;3.70;99.90;;;;;;5100699;28;20189;-80
2021/03/05 03:58:20;;;;;;;20.63;7.37;;;3.70;99.90;;;;;;5097794;28;20293;-80
2021/03/05 04:00:47;;;;;;;19.57;7.83;;;3.60;99.90;;;;;;5098618;28;20216;-81
2021/03/05 04:03:14;;;;;;;12.77;7.97;;;3.70;99.90;;;;;;5099554;28;20285;-80
2021/03/05 04:05:44;;;;;;;17.37;8.30;;;3.60;99.90;;;;;;5097629;28;20204;-80
2021/03/05 04:08:13;;;;;;;16.07;8.03;;;3.60;99.90;;;;;;5102068;28;20214;-80
2021/03/05 04:10:41;;;;;;;19.63;9.57;;;3.60;99.90;;;;;;5101419;28;20217;-81
2021/03/05 04:13:09;;;;;;;14.23;9.13;;;3.40;99.90;;;;;;5099818;28;20221;-80
2021/03/05 04:15:36;;;;;;;17.33;9.27;;;3.30;99.90;;;;;;5097738;28;20281;-80
2021/03/05 04:18:03;;;;;;;18.80;9.33;;;3.30;99.90;;;;;;5101320;28;20285;-80
2021/03/05 04:20:31;;;;;;;19.07;8.83;;;3.30;99.90;;;;;;5098094;28;20214;-79
2021/03/05 04:22:57;;;;;;;16.57;9.07;;;3.40;99.90;;;;;;5098693;28;20194;-79
2021/03/05 04:25:24;;;;;;;16.47;9.47;;;3.30;99.90;;;;;;5095828;28;20266;-80
2021/03/05 04:27:50;;;;;;;15.03;8.83;;;3.30;99.90;;;;;;5102279;28;20229;-79
2021/03/05 04:30:18;;;;;;;20.13;9.90;;;3.10;99.90;;;;;;5105851;28;20225;-80
2021/03/05 04:32:45;;;;;;;19.50;10.20;;;3.10;99.90;;;;;;5100617;28;20244;-79
2021/03/05 04:35:12;;;;;;;19.33;10.00;;;3.00;99.90;;;;;;5104322;28;20284;-79
2021/03/05 04:37:39;;;;;;;17.23;10.13;;;3.00;99.90;;;;;;5104642;28;20760;-80
2021/03/05 04:40:07;;;;;;;21.93;10.43;;;3.00;99.90;;;;;;5102145;28;20551;-81
2021/03/05 04:42:34;;;;;;;20.77;10.70;;;3.10;99.90;;;;;;5100708;28;20204;-82
2021/03/05 04:45:01;;;;;;;18.90;10.87;;;2.90;99.90;;;;;;5101340;28;20232;-81
2021/03/05 04:47:28;;;;;;;16.83;9.60;;;2.90;99.90;;;;;;5103169;28;20202;-82
2021/03/05 04:49:55;;;;;;;17.87;11.00;;;3.00;99.90;;;;;;5105217;28;20300;-82
2021/03/05 04:52:22;;;;;;;21.40;10.80;;;3.10;99.90;;;;;;5101519;28;20221;-81
2021/03/05 04:54:49;;;;;;;19.87;11.10;;;3.20;99.90;;;;;;5101219;28;20352;-81
2021/03/05 04:57:15;;;;;;;20.27;10.73;;;3.00;99.90;;;;;;5100657;28;20683;-80
2021/03/05 04:59:42;;;;;;;18.50;11.00;;;3.20;99.90;;;;;;5103705;28;20212;-81
2021/03/05 05:02:08;;;;;;;21.30;12.33;;;3.20;99.90;;;;;;5104681;28;20212;-81
2021/03/05 05:04:35;;;;;;;18.97;11.47;;;3.10;99.90;;;;;;5103265;28;20234;-81
2021/03/05 05:07:02;;;;;;;19.30;12.60;;;3.10;99.90;;;;;;5102655;28;20204;-81
2021/03/05 05:09:28;;;;;;;17.73;12.23;;;3.20;99.90;;;;;;5103610;28;20205;-82
2021/03/05 05:11:54;;;;;;;18.93;11.57;;;3.20;99.90;;;;;;5101372;28;20292;-82
2021/03/05 05:14:21;;;;;;;17.37;11.47;;;3.30;99.90;;;;;;5099828;28;20202;-86
2021/03/05 05:16:47;;;;;;;18.17;12.43;;;3.20;99.90;;;;;;5101392;28;20198;-83
2021/03/05 05:19:14;;;;;;;16.60;10.93;;;3.10;99.90;;;;;;5101758;28;20216;-83
2021/03/05 05:21:41;;;;;;;17.53;11.40;;;3.10;99.90;;;;;;5107830;28;20201;-83
2021/03/05 05:24:08;;;;;;;18.50;12.00;;;3.00;99.90;;;;;;5097245;28;20723;-83
2021/03/05 05:26:34;;;;;;;17.63;12.83;;;2.90;99.90;;;;;;5103099;28;20190;-82
2021/03/05 05:29:01;;;;;;;17.07;11.70;;;2.90;99.90;;;;;;5100315;28;20207;-83
2021/03/05 05:31:27;;;;;;;18.67;12.70;;;2.80;99.90;;;;;;5101333;28;20222;-84
2021/03/05 05:33:54;;;;;;;15.97;11.50;;;2.80;99.90;;;;;;5101756;28;20296;-86
2021/03/05 05:36:20;;;;;;;19.03;12.80;;;2.60;99.90;;;;;;5099347;28;20206;-85
2021/03/05 05:38:47;;;;;;;18.80;12.83;;;2.70;99.90;;;;;;5102210;28;20237;-83
2021/03/05 05:41:14;;;;;;;17.30;13.17;;;2.60;99.90;;;;;;5101165;28;20216;-84
2021/03/05 05:43:41;;;;;;;20.00;11.80;;;2.50;99.90;;;;;;5100522;28;20202;-81
2021/03/05 05:46:09;;;;;;;18.47;12.27;;;2.40;99.90;;;;;;5103164;28;20197;-82
2021/03/05 05:48:36;;;;;;;19.13;12.97;;;2.40;99.90;;;;;;5102259;28;20971;-83
2021/03/05 05:51:05;;;;;;;20.07;13.80;;;2.30;99.90;;;;;;5101869;28;20569;-83
2021/03/05 05:53:35;;;;;;;22.33;14.23;;;2.30;99.90;;;;;;5099175;28;20285;-82
2021/03/05 05:56:02;;;;;;;19.43;12.93;;;2.20;99.90;;;;;;5101777;28;20252;-81
2021/03/05 05:58:29;;;;;;;18.07;12.90;;;2.20;99.90;;;;;;5102361;28;20210;-83
2021/03/05 06:00:56;;;;;;;20.73;13.53;;;2.20;99.90;;;;;;5100645;28;20669;-82
2021/03/05 06:03:27;;;;;;;22.60;13.67;;;2.00;99.90;;;;;;5100703;28;20201;-83
2021/03/05 06:05:55;;;;;;;22.53;13.57;;;2.00;99.90;;;;;;5104597;28;20204;-82
2021/03/05 06:08:21;;;;;;;23.83;13.43;;;2.00;99.90;;;;;;5100821;28;20550;-83
2021/03/05 06:10:48;;;;;;;21.93;13.23;;;2.00;99.90;;;;;;5099141;28;20198;-82
2021/03/05 06:13:16;;;;;;;22.87;14.83;;;2.00;99.90;;;;;;5095925;28;20210;-82
2021/03/05 06:15:44;;;;;;;21.87;13.90;;;1.90;99.90;;;;;;5103681;28;20247;-82
2021/03/05 06:18:33;;;;;;;21.87;14.47;;;1.90;99.90;;;;;;5100299;28;20212;-82
2021/03/05 06:21:00;;;;;;;22.60;13.80;;;1.90;99.90;;;;;;5100686;28;20201;-83
2021/03/05 06:23:29;;;;;;;24.70;15.33;;;1.90;99.90;;;;;;5103372;28;20201;-82
2021/03/05 06:26:02;;;;;;;22.03;14.53;;;1.90;99.90;;;;;;5100459;28;20233;-83
2021/03/05 06:28:31;;;;;;;27.57;15.03;;;2.30;99.90;;;;;;5097412;28;20235;-82
2021/03/05 06:31:12;;;;;;;27.10;16.30;;;1.80;99.90;;;;;;5099634;28;20205;-82
2021/03/05 06:33:38;;;;;;;24.80;14.40;;;2.00;99.90;;;;;;5100080;28;20305;-82
2021/03/05 06:36:19;;;;;;;22.23;14.17;;;1.90;99.90;;;;;;5100198;28;21437;-82
2021/03/05 06:38:46;;;;;;;25.67;15.60;;;1.90;99.90;;;;;;5105138;28;20302;-82
2021/03/05 06:41:21;;;;;;;26.43;14.50;;;1.90;99.90;;;;;;5101498;28;20202;-81
2021/03/05 06:43:49;;;;;;;25.83;15.03;;;1.90;99.90;;;;;;5099029;28;20225;-81
2021/03/05 06:46:26;;;;;;;25.47;14.73;;;2.10;99.90;;;;;;5101507;28;20788;-82
2021/03/05 06:48:53;;;;;;;23.97;14.77;;;2.20;99.90;;;;;;5097877;28;20284;-81
2021/03/05 06:51:20;;;;;;;22.20;13.90;;;2.20;99.90;;;;;;5098659;28;20289;-82
2021/03/05 06:53:47;;;;;;;23.20;13.53;;;2.30;99.90;;;;;;5100198;28;20198;-82
2021/03/05 06:56:26;;;;;;;24.73;14.07;;;2.80;99.90;;;;;;5097222;28;20212;-82
2021/03/05 06:59:00;;;;;;;20.77;13.10;;;2.50;99.90;;;;;;5098399;28;20356;-84
2021/03/05 07:01:27;;;;;;;27.60;12.10;;;2.80;99.90;;;;;;5102215;28;20280;-83
2021/03/05 07:04:07;;;;;;;21.50;12.53;;;2.70;99.90;;;;;;5098872;28;20296;-83
2021/03/05 07:06:34;;;;;;;22.13;12.37;;;2.70;99.90;;;;;;5098052;28;20578;-84
2021/03/05 07:09:00;;;;;;;20.83;11.70;;;2.90;99.90;;;;;;5100126;28;20292;-83
2021/03/05 07:11:35;;;;;;;17.80;12.07;;;2.90;99.90;;;;;;5099260;28;20205;-86
2021/03/05 07:14:03;;;;;;;15.77;10.70;;;3.20;99.90;;;;;;5096661;28;20648;-82
2021/03/05 07:16:46;;;;;;;18.37;10.00;;;3.40;99.90;;;;;;5102557;28;20225;-83
2021/03/05 07:19:15;;;;;;;16.13;10.20;;;3.20;99.90;;;;;;5099900;28;20216;-84
2021/03/05 07:21:44;;;;;;;16.43;10.03;;;3.80;99.90;;;;;;5097940;28;20649;-83
2021/03/05 07:24:14;;;;;;;17.20;10.77;;;3.80;99.90;;;;;;5103412;28;20316;-83
2021/03/05 07:26:53;;;;;;;18.43;10.83;;;4.00;99.90;;;;;;5097492;28;20247;-89
2021/03/05 07:29:22;;;;;;;15.73;9.57;;;4.30;99.90;;;;;;5102365;28;20279;-85
2021/03/05 07:31:57;;;;;;;15.63;9.97;;;4.50;99.90;;;;;;5101829;28;20686;-83
2021/03/05 07:34:26;;;;;;;20.23;9.80;;;5.10;99.90;;;;;;5100538;28;20207;-85
2021/03/05 07:36:56;;;;;;;12.97;8.37;;;5.30;99.90;;;;;;5102145;28;20245;-85
2021/03/05 07:39:25;;;;;;;12.60;8.83;;;5.90;99.90;;;;;;5105410;28;20202;-85
2021/03/05 07:41:54;;;;;;;14.73;9.07;;;6.10;99.90;;;;;;5107540;28;20296;-85
2021/03/05 07:44:23;;;;;;;11.87;9.00;;;6.10;99.90;;;;;;5105898;28;20240;-85
2021/03/05 07:46:49;;;;;;;12.93;8.63;;;6.60;99.90;;;;;;5109211;28;20233;-87
2021/03/05 07:49:17;;;;;;;14.00;8.67;;;6.50;99.90;;;;;;5104182;28;20213;-86
2021/03/05 07:51:44;;;;;;;11.60;7.47;;;6.50;99.90;;;;;;5098646;28;20209;-87
2021/03/05 07:54:10;;;;;;;12.57;8.13;;;6.50;99.90;;;;;;5109198;28;20255;-88
2021/03/05 07:56:41;;;;;;;10.20;7.37;;;6.50;99.90;;;;;;5105102;28;20213;-86
2021/03/05 07:59:08;;;;;;;11.00;6.57;;;6.30;99.90;;;;;;5101452;28;20203;-86
2021/03/05 08:01:55;;;;;;;13.47;6.73;;;6.50;99.90;;;;;;5100377;28;20246;-88
2021/03/05 08:04:45;;;;;;;12.17;7.10;;;6.70;99.90;;;;;;5104043;28;20247;-85
2021/03/05 08:07:12;;;;;;;10.63;7.07;;;6.30;99.90;;;;;;5104900;28;20209;-88
2021/03/05 08:09:38;;;;;;;9.57;6.17;;;6.90;99.90;;;;;;5105778;28;20245;-86
2021/03/05 08:12:38;;;;;;;12.80;7.23;;;7.10;99.90;;;;;;5106481;28;20237;-88
2021/03/05 08:15:28;;;;;;;12.63;6.93;;;7.10;99.90;;;;;;5111179;28;20213;-89
2021/03/05 08:17:56;;;;;;;12.47;6.60;;;6.40;99.90;;;;;;5101960;28;20198;-87
2021/03/05 08:20:52;;;;;;;9.33;6.03;;;6.90;99.90;;;;;;5102750;28;20202;-87
2021/03/05 08:23:21;;;;;;;10.53;6.20;;;6.80;99.90;;;;;;5103926;28;20206;-90
2021/03/05 08:25:50;;;;;;;12.33;6.30;;;7.50;99.90;;;;;;5102773;28;20316;-87
2021/03/05 08:28:41;;;;;;;8.60;5.30;;;7.80;99.90;;;;;;5103154;28;20293;-88
2021/03/05 08:31:36;;;;;;;11.73;5.90;;;7.50;99.90;;;;;;5106923;28;20198;-87
2021/03/05 08:34:26;;;;;;;9.00;5.80;;;7.40;99.90;;;;;;5106351;28;20209;-86
2021/03/05 08:36:54;;;;;;;8.33;5.17;;;7.90;99.90;;;;;;5102572;28;20237;-86
2021/03/05 08:39:25;;;;;;;11.23;5.90;;;8.10;99.90;;;;;;5107318;28;20210;-89
2021/03/05 08:42:24;;;;;;;8.27;5.20;;;7.50;99.90;;;;;;5108732;28;20217;-90
2021/03/05 08:45:15;;;;;;;9.00;5.53;;;7.30;99.90;;;;;;5101649;28;20605;-89
2021/03/05 08:47:43;;;;;;;9.03;5.60;;;8.20;99.90;;;;;;5105650;28;20672;-88
2021/03/05 08:50:12;;;;;;;8.17;5.30;;;8.60;99.90;;;;;;5106494;28;20218;-92
2021/03/05 08:52:44;;;;;;;8.07;4.80;;;8.60;99.90;;;;;;5107935;28;20894;-91
2021/03/05 08:55:22;;;;;;;;;;;;;;;;;;;;;
2021/03/05 08:57:52;;;;;;;8.17;4.90;;;8.60;99.90;;;;;;5111202;28;20269;-90
2021/03/05 09:00:22;;;;;;;7.93;4.17;;;8.40;99.90;;;;;;5106843;28;20209;-87
2021/03/05 09:03:04;;;;;;;6.07;4.30;;;8.70;99.90;;;;;;5107989;28;20209;-91
2021/03/05 09:05:37;;;;;;;7.30;4.60;;;9.00;99.90;;;;;;5104338;28;20242;-88
2021/03/05 09:08:09;;;;;;;6.87;4.80;;;8.70;99.90;;;;;;5105934;28;20202;-91
2021/03/05 09:10:44;;;;;;;6.17;4.33;;;8.50;99.90;;;;;;5103128;28;20212;-84
2021/03/05 09:13:14;;;;;;;6.57;4.37;;;8.10;99.90;;;;;;5101396;28;20236;-84
2021/03/05 09:15:46;;;;;;;6.43;3.90;;;8.60;99.90;;;;;;5103349;28;20678;-88
2021/03/05 09:18:16;;;;;;;5.07;3.90;;;8.40;99.90;;;;;;5110213;28;20198;-83
2021/03/05 09:20:49;;;;;;;7.17;3.93;;;8.60;99.90;;;;;;5112946;28;20607;-89
2021/03/05 09:23:21;;;;;;;5.37;3.77;;;8.40;99.90;;;;;;5108918;28;20240;-86
2021/03/05 09:25:51;;;;;;;4.57;3.90;;;8.80;99.90;;;;;;5097429;28;20253;-86
2021/03/05 09:28:22;;;;;;;6.82;4.53;;;9.40;99.90;;;;;;5100220;28;20448;-83
2021/03/05 09:30:51;;;;;;;5.63;3.83;;;9.00;99.90;;;;;;5100033;28;20199;-83
2021/03/05 09:33:17;;;;;;;5.03;3.80;;;8.60;99.90;;;;;;5099276;28;20210;-83
2021/03/05 09:35:44;;;;;;;6.03;3.23;;;8.00;99.90;;;;;;5100277;28;20653;-83
2021/03/05 09:38:16;;;;;;;4.20;3.40;;;7.40;99.90;;;;;;5103052;28;20220;-85
2021/03/05 09:40:43;;;;;;;5.57;3.80;;;6.80;99.90;;;;;;5103285;28;20201;-85
2021/03/05 09:43:16;;;;;;;7.83;3.53;;;6.20;99.90;;;;;;5100166;28;20207;-85
2021/03/05 09:45:46;;;;;;;4.93;3.60;;;5.70;99.90;;;;;;5100941;28;20228;-83
2021/03/05 09:48:27;;;;;;;9.73;3.60;;;5.60;99.90;;;;;;5101248;28;20327;-84
2021/03/05 09:50:57;;;;;;;4.43;3.13;;;5.80;99.90;;;;;;5101113;28;20231;-84
2021/03/05 09:53:29;;;;;;;4.50;3.10;;;5.70;99.90;;;;;;5100708;28;20213;-83
2021/03/05 09:55:57;;;;;;;4.10;3.17;;;5.50;99.90;;;;;;5102130;28;20674;-81
2021/03/05 09:58:24;;;;;;;4.60;3.30;;;5.50;99.90;;;;;;5099413;28;20213;-82
2021/03/05 10:00:52;;;;;;;6.00;3.90;;;5.40;99.90;;;;;;5100452;28;20675;-80
2021/03/05 10:03:19;;;;;;;6.23;3.20;;;5.40;99.90;;;;;;5101213;28;20213;-81
2021/03/05 10:05:46;;;;;;;7.60;3.17;;;5.50;99.90;;;;;;5103434;28;20249;-80
2021/03/05 10:08:15;;;;;;;7.43;4.18;;;5.50;99.90;;;;;;5096660;28;20529;-78
2021/03/05 10:11:07;;;;;;;7.72;4.03;;;5.60;99.90;;;;;;5096334;28;20451;-82
2021/03/05 10:13:51;;;;;;;6.30;3.70;;;6.00;99.90;;;;;;5102538;28;20288;-80
2021/03/05 10:16:20;;;;;;;7.00;3.30;;;5.70;99.90;;;;;;5097072;28;20200;-79
2021/03/05 10:18:48;;;;;;;4.20;3.10;;;5.80;99.90;;;;;;5099478;28;20202;-79
2021/03/05 10:21:17;;;;;;;6.87;3.43;;;5.70;99.90;;;;;;5098202;28;20201;-78
2021/03/05 10:23:44;;;;;;;6.70;3.63;;;5.80;99.90;;;;;;5083147;28;20202;-77
2021/03/05 10:26:28;;;;;;;7.87;3.80;;;5.60;99.90;;;;;;5091588;28;20344;-78
2021/03/05 10:28:57;;;;;;;6.43;3.53;;;5.70;99.90;;;;;;5093742;28;20649;-79
2021/03/05 10:31:42;;;;;;;6.70;3.57;;;5.80;99.90;;;;;;5094308;28;20190;-76
2021/03/05 10:34:19;;;;;;;6.20;3.13;;;5.70;99.90;;;;;;5093994;28;20214;-77
2021/03/05 10:36:45;;;;;;;5.93;3.43;;;5.60;99.90;;;;;;5093858;28;20201;-77
2021/03/05 10:39:13;;;;;;;4.10;3.30;;;5.80;99.90;;;;;;5086439;28;20213;-77
2021/03/05 10:41:39;;;;;;;5.13;3.50;;;5.80;99.90;;;;;;5088002;28;20217;-79
2021/03/05 10:44:06;;;;;;;7.77;3.43;;;5.60;99.90;;;;;;5094250;28;20331;-82
2021/03/05 10:46:32;;;;;;;5.60;3.67;;;5.40;99.90;;;;;;5094320;28;20218;-80
2021/03/05 10:48:58;;;;;;;8.13;3.53;;;5.30;99.90;;;;;;5093958;28;20788;-76
2021/03/05 10:51:25;;;;;;;4.63;3.43;;;5.30;99.90;;;;;;5093651;28;20233;-77
2021/03/05 10:53:51;;;;;;;4.83;3.27;;;5.30;99.90;;;;;;5093695;28;20289;-79
2021/03/05 10:56:18;;;;;;;3.80;3.13;;;5.10;99.90;;;;;;5093749;28;20289;-77
2021/03/05 10:58:45;;;;;;;4.23;3.00;;;5.20;99.90;;;;;;5094000;28;20263;-77
2021/03/05 11:01:11;;;;;;;6.23;3.90;;;5.10;99.90;;;;;;5094072;28;20206;-79
2021/03/05 11:03:37;;;;;;;6.77;3.13;;;5.10;99.90;;;;;;5094043;28;20292;-77
2021/03/05 11:06:04;;;;;;;6.60;3.17;;;5.10;99.90;;;;;;5093292;28;20229;-77
2021/03/05 11:08:32;;;;;;;4.67;3.37;;;5.20;99.90;;;;;;5093917;28;20309;-77
2021/03/05 11:10:59;;;;;;;5.37;3.53;;;5.20;99.90;;;;;;5093816;28;20352;-77
2021/03/05 11:13:26;;;;;;;6.37;3.30;;;5.20;99.90;;;;;;5093699;28;20204;-77
2021/03/05 11:15:52;;;;;;;4.30;3.10;;;5.30;99.90;;;;;;5093553;28;20720;-77
2021/03/05 11:18:19;;;;;;;4.17;3.53;;;5.50;99.90;;;;;;5093487;28;20277;-77
2021/03/05 11:20:46;;;;;;;9.10;6.07;;;5.60;99.90;;;;;;5093215;28;20227;-81
2021/03/05 11:23:12;;;;;;;5.10;3.40;;;5.80;99.90;;;;;;5093913;28;20194;-78
2021/03/05 11:25:38;;;;;;;6.67;4.00;;;6.10;99.90;;;;;;5093565;28;20225;-78
2021/03/05 11:28:05;;;;;;;5.77;3.10;;;6.10;99.90;;;;;;5093362;28;20284;-77
2021/03/05 11:30:33;;;;;;;7.87;3.50;;;6.00;99.90;;;;;;5093258;28;20229;-78
2021/03/05 11:32:59;;;;;;;10.23;3.43;;;5.90;99.90;;;;;;5092919;28;20285;-76
2021/03/05 11:35:25;;;;;;;4.53;2.87;;;5.90;99.90;;;;;;5092886;28;20209;-79
2021/03/05 11:37:52;;;;;;;5.53;3.20;;;5.80;99.90;;;;;;5092418;28;20289;-77
2021/03/05 11:40:19;;;;;;;7.10;2.63;;;6.00;99.90;;;;;;5093119;28;20276;-77
2021/03/05 11:42:45;;;;;;;6.00;3.40;;;6.00;99.90;;;;;;5093427;28;20198;-76
2021/03/05 11:45:14;;;;;;;9.03;3.30;;;6.00;99.90;;;;;;5093359;28;20226;-77
2021/03/05 11:47:41;;;;;;;5.70;3.10;;;6.10;99.90;;;;;;5093269;28;20206;-77
2021/03/05 11:50:10;;;;;;;4.00;3.07;;;6.20;99.90;;;;;;5092739;28;20293;-76
2021/03/05 11:52:37;;;;;;;4.53;2.63;;;6.20;99.90;;;;;;5093243;28;20210;-75
2021/03/05 11:55:04;;;;;;;3.27;2.40;;;6.10;99.90;;;;;;5093332;28;20548;-78
2021/03/05 11:57:30;;;;;;;7.00;3.87;;;6.10;99.90;;;;;;5093035;28;20205;-76
2021/03/05 11:59:56;;;;;;;6.30;2.53;;;6.10;99.90;;;;;;5092807;28;20224;-76
2021/03/05 12:02:23;;;;;;;8.03;4.67;;;6.00;99.90;;;;;;5092706;28;21565;-76
2021/03/05 12:04:50;;;;;;;6.13;3.53;;;6.00;99.90;;;;;;5092470;28;20275;-78
2021/03/05 12:07:17;;;;;;;9.03;5.03;;;6.00;99.90;;;;;;5092466;28;20281;-76
2021/03/05 12:09:43;;;;;;;6.03;3.30;;;6.20;99.90;;;;;;5093136;28;20340;-77
2021/03/05 12:12:11;;;;;;;4.73;2.97;;;6.10;99.90;;;;;;5093421;28;20232;-77
2021/03/05 12:14:37;;;;;;;3.43;2.50;;;6.10;99.90;;;;;;5092614;28;20198;-76
2021/03/05 12:17:04;;;;;;;4.77;3.30;;;6.10;99.90;;;;;;5093090;28;20202;-77
2021/03/05 12:19:30;;;;;;;4.70;2.90;;;6.20;99.90;;;;;;5092388;28;20202;-77
2021/03/05 12:21:57;;;;;;;2.80;2.50;;;6.40;99.90;;;;;;5092638;28;20203;-77
2021/03/05 12:24:24;;;;;;;6.67;2.90;;;6.30;99.90;;;;;;5093270;28;20248;-78
2021/03/05 12:26:50;;;;;;;4.07;2.73;;;6.20;99.90;;;;;;5092676;28;20213;-78
2021/03/05 12:29:17;;;;;;;5.73;3.30;;;6.10;99.90;;;;;;5093055;28;20202;-78
2021/03/05 12:31:43;;;;;;;4.77;3.27;;;6.20;99.90;;;;;;5092780;28;20289;-78
2021/03/05 12:34:09;;;;;;;5.77;2.43;;;6.30;99.90;;;;;;5092897;28;20596;-77
2021/03/05 12:36:36;;;;;;;3.10;2.27;;;6.30;99.90;;;;;;5092279;28;20625;-76
2021/03/05 12:39:03;;;;;;;6.60;2.43;;;6.20;99.90;;;;;;5092691;28;20271;-77
2021/03/05 12:41:30;;;;;;;2.80;2.40;;;6.10;99.90;;;;;;5092404;28;20726;-76
2021/03/05 12:43:56;;;;;;;7.20;2.50;;;6.10;99.90;;;;;;5092530;28;20197;-77
2021/03/05 12:46:22;;;;;;;4.37;2.40;;;6.30;99.90;;;;;;5092493;28;20324;-78
2021/03/05 12:48:49;;;;;;;4.27;2.60;;;6.30;99.90;;;;;;5093292;28;20205;-77
2021/03/05 12:51:16;;;;;;;3.47;2.50;;;6.20;99.90;;;;;;5096449;28;20285;-76
2021/03/05 12:53:43;;;;;;;5.00;1.80;;;6.20;99.90;;;;;;5095993;28;20206;-76
2021/03/05 12:56:10;;;;;;;3.17;2.27;;;6.20;99.80;;;;;;5096568;28;20210;-76
2021/03/05 12:58:36;;;;;;;6.07;2.30;;;6.30;99.90;;;;;;5095845;28;20198;-76
2021/03/05 13:01:03;;;;;;;3.17;2.30;;;6.40;99.50;;;;;;5096086;28;20202;-77